createdAt,value
2023-05-19T00:02:22.626Z,8.06
2023-05-19T00:05:08.594Z,8.00
2023-05-19T00:07:58.641Z,7.96
2023-05-19T00:10:44.337Z,7.93
2023-05-19T00:13:29.475Z,7.90
2023-05-19T00:16:15.566Z,7.80
2023-05-19T00:19:02.883Z,7.77
2023-05-19T00:21:48.164Z,7.67
2023-05-19T00:24:34.685Z,7.45
2023-05-19T00:27:19.792Z,7.69
2023-05-19T00:30:05.849Z,7.80
2023-05-19T00:32:51.441Z,7.90
2023-05-19T00:35:36.367Z,7.94
2023-05-19T00:38:21.785Z,7.97
2023-05-19T00:41:07.855Z,7.83
2023-05-19T00:43:53.336Z,7.86
2023-05-19T00:46:38.361Z,7.50
2023-05-19T00:49:23.687Z,7.67
2023-05-19T00:52:09.179Z,7.63
2023-05-19T00:54:55.619Z,7.73
2023-05-19T00:57:42.528Z,7.60
2023-05-19T01:00:28.012Z,7.27
2023-05-19T01:03:13.530Z,7.29
2023-05-19T01:05:59.000Z,7.42
2023-05-19T01:08:46.753Z,7.46
2023-05-19T01:11:31.843Z,7.30
2023-05-19T01:14:18.639Z,6.92
2023-05-19T01:17:14.355Z,6.86
2023-05-19T01:20:12.308Z,6.95
2023-05-19T01:23:03.427Z,6.61
2023-05-19T01:26:25.052Z,6.50
2023-05-19T01:29:42.490Z,6.34
2023-05-19T01:32:30.466Z,6.22
2023-05-19T01:35:17.285Z,6.26
2023-05-19T01:38:03.942Z,6.30
2023-05-19T01:40:51.377Z,6.20
2023-05-19T01:43:37.224Z,6.30
2023-05-19T01:46:23.671Z,6.37
2023-05-19T01:49:09.249Z,6.35
2023-05-19T01:51:54.667Z,6.24
2023-05-19T01:54:39.891Z,6.12
2023-05-19T01:57:28.243Z,6.09
2023-05-19T02:00:38.900Z,6.13
2023-05-19T02:03:42.709Z,6.18
2023-05-19T02:06:44.781Z,6.19
2023-05-19T02:09:53.161Z,6.22
2023-05-19T02:12:39.789Z,6.16
2023-05-19T02:15:29.070Z,6.12
2023-05-19T02:18:15.426Z,6.30
2023-05-19T02:21:00.716Z,6.36
2023-05-19T02:23:46.297Z,6.48
2023-05-19T02:26:31.585Z,6.52
2023-05-19T02:29:17.128Z,6.61
2023-05-19T02:32:02.686Z,6.61
2023-05-19T02:34:48.018Z,6.35
2023-05-19T02:37:33.287Z,6.35
2023-05-19T02:40:18.665Z,6.37
2023-05-19T02:43:03.758Z,6.48
2023-05-19T02:45:48.734Z,6.51
2023-05-19T02:48:34.378Z,6.43
2023-05-19T02:51:19.552Z,6.03
2023-05-19T02:54:05.092Z,6.08
2023-05-19T02:56:50.344Z,6.21
2023-05-19T02:59:35.534Z,6.29
2023-05-19T03:02:20.889Z,6.38
2023-05-19T03:05:06.868Z,6.22
2023-05-19T03:07:52.070Z,6.10
2023-05-19T03:10:37.653Z,6.13
2023-05-19T03:13:22.484Z,6.13
2023-05-19T03:16:08.489Z,6.21
2023-05-19T03:18:53.569Z,6.09
2023-05-19T03:21:38.593Z,5.89
2023-05-19T03:24:24.130Z,6.02
2023-05-19T03:27:09.498Z,5.62
2023-05-19T03:29:54.903Z,5.34
2023-05-19T03:32:40.416Z,5.30
2023-05-19T03:35:25.459Z,5.31
2023-05-19T03:38:10.944Z,5.51
2023-05-19T03:40:56.369Z,5.41
2023-05-19T03:43:42.025Z,5.31
2023-05-19T03:46:27.052Z,5.49
2023-05-19T03:49:12.560Z,5.64
2023-05-19T03:51:57.995Z,5.79
2023-05-19T03:54:43.378Z,5.82
2023-05-19T03:57:28.854Z,5.86
2023-05-19T04:00:14.642Z,5.70
2023-05-19T04:03:00.235Z,5.33
2023-05-19T04:05:45.804Z,5.13
2023-05-19T04:08:31.204Z,5.35
2023-05-19T04:11:16.589Z,5.27
2023-05-19T04:14:01.832Z,5.09
2023-05-19T04:16:47.181Z,5.08
2023-05-19T04:19:32.546Z,5.14
2023-05-19T04:22:17.536Z,5.23
2023-05-19T04:25:02.878Z,5.46
2023-05-19T04:27:47.818Z,5.67
2023-05-19T04:30:33.649Z,5.85
2023-05-19T04:33:19.078Z,5.84
2023-05-19T04:36:05.800Z,6.01
2023-05-19T04:38:50.919Z,6.13
2023-05-19T04:41:36.146Z,5.87
2023-05-19T04:44:21.593Z,5.88
2023-05-19T04:47:09.871Z,5.97
2023-05-19T04:49:55.347Z,6.12
2023-05-19T04:52:40.979Z,6.26
2023-05-19T04:55:26.302Z,6.26
2023-05-19T04:58:11.647Z,6.31
2023-05-19T05:00:57.017Z,6.36
2023-05-19T05:03:42.859Z,6.15
2023-05-19T05:06:28.254Z,6.44
2023-05-19T05:09:14.540Z,6.72
2023-05-19T05:12:01.081Z,6.91
2023-05-19T05:14:46.641Z,7.11
2023-05-19T05:17:32.131Z,7.33
2023-05-19T05:20:17.765Z,7.59
2023-05-19T05:23:03.380Z,7.76
2023-05-19T05:25:48.775Z,7.99
2023-05-19T05:28:33.796Z,8.22
2023-05-19T05:31:19.217Z,8.39
2023-05-19T05:34:04.736Z,8.55
2023-05-19T05:36:49.795Z,8.60
2023-05-19T05:39:35.181Z,8.89
2023-05-19T05:42:20.625Z,9.09
2023-05-19T05:45:06.735Z,9.15
2023-05-19T05:47:52.412Z,9.08
2023-05-19T05:50:38.096Z,9.19
2023-05-19T05:53:25.556Z,9.54
2023-05-19T05:56:11.780Z,9.60
2023-05-19T05:58:57.134Z,9.76
2023-05-19T06:01:42.576Z,9.93
2023-05-19T06:04:27.926Z,10.07
2023-05-19T06:07:13.408Z,10.35
2023-05-19T06:09:58.605Z,10.73
2023-05-19T06:12:43.864Z,10.86
2023-05-19T06:15:29.492Z,11.18
2023-05-19T06:18:14.818Z,11.49
2023-05-19T06:21:00.276Z,11.65
2023-05-19T06:23:45.540Z,12.04
2023-05-19T06:26:30.915Z,12.24
2023-05-19T06:29:16.196Z,12.57
2023-05-19T06:32:01.573Z,12.91
2023-05-19T06:34:46.981Z,13.15
2023-05-19T06:37:32.237Z,13.40
2023-05-19T06:40:17.690Z,13.65
2023-05-19T06:43:02.874Z,13.89
2023-05-19T06:45:48.048Z,14.10
2023-05-19T06:48:33.412Z,14.35
2023-05-19T06:51:18.461Z,14.47
2023-05-19T06:54:03.913Z,14.47
2023-05-19T06:56:48.870Z,14.75
2023-05-19T06:59:34.287Z,14.99
2023-05-19T07:02:19.642Z,15.12
2023-05-19T07:05:05.306Z,15.22
2023-05-19T07:07:50.475Z,15.28
2023-05-19T07:10:35.924Z,15.41
2023-05-19T07:13:21.322Z,15.35
2023-05-19T07:16:06.444Z,15.56
2023-05-19T07:18:51.621Z,15.57
2023-05-19T07:21:36.980Z,15.86
2023-05-19T07:24:22.435Z,15.88
2023-05-19T07:27:07.566Z,15.99
2023-05-19T07:29:52.950Z,15.90
2023-05-19T07:32:38.149Z,16.06
2023-05-19T07:35:23.863Z,15.93
2023-05-19T07:38:08.919Z,16.12
2023-05-19T07:40:54.443Z,16.42
2023-05-19T07:43:39.704Z,16.75
2023-05-19T07:46:24.832Z,16.70
2023-05-19T07:49:10.258Z,16.87
2023-05-19T07:51:55.323Z,16.64
2023-05-19T07:54:40.737Z,16.53
2023-05-19T07:57:26.085Z,16.92
2023-05-19T08:00:11.971Z,16.98
2023-05-19T08:02:57.596Z,16.99
2023-05-19T08:05:43.240Z,17.03
2023-05-19T08:08:28.703Z,17.31
2023-05-19T08:11:15.672Z,17.60
2023-05-19T08:14:06.283Z,17.50
2023-05-19T08:16:51.521Z,17.57
2023-05-19T08:19:36.918Z,17.86
2023-05-19T08:22:22.248Z,18.08
2023-05-19T08:25:07.835Z,18.17
2023-05-19T08:27:52.932Z,18.19
2023-05-19T08:30:38.010Z,17.68
2023-05-19T08:33:23.367Z,17.66
2023-05-19T08:36:09.008Z,17.78
2023-05-19T08:38:54.253Z,18.32
2023-05-19T08:41:39.598Z,18.09
2023-05-19T08:44:24.987Z,18.10
2023-05-19T08:47:10.856Z,18.45
2023-05-19T08:50:03.645Z,18.54
2023-05-19T08:53:12.762Z,18.70
2023-05-19T08:56:21.192Z,18.32
2023-05-19T08:59:07.832Z,18.72
2023-05-19T09:01:54.007Z,18.84
2023-05-19T09:04:40.389Z,18.49
2023-05-19T09:07:26.861Z,18.27
2023-05-19T09:10:12.319Z,18.57
2023-05-19T09:12:57.699Z,18.80
2023-05-19T09:15:45.257Z,18.76
2023-05-19T09:18:30.789Z,18.76
2023-05-19T09:21:16.113Z,19.18
2023-05-19T09:24:06.038Z,19.01
2023-05-19T09:26:51.182Z,18.95
2023-05-19T09:29:36.514Z,19.31
2023-05-19T09:32:25.716Z,18.45
2023-05-19T09:35:12.366Z,18.73
2023-05-19T09:37:57.684Z,18.63
2023-05-19T09:40:42.835Z,19.04
2023-05-19T09:43:32.887Z,19.43
2023-05-19T09:46:18.071Z,19.87
2023-05-19T09:49:09.550Z,19.36
2023-05-19T09:51:55.497Z,18.78
2023-05-19T09:54:40.812Z,18.86
2023-05-19T09:57:26.762Z,19.25
2023-05-19T10:00:12.567Z,19.79
2023-05-19T10:03:06.094Z,19.41
2023-05-19T10:05:54.920Z,18.96
2023-05-19T10:08:41.522Z,19.50
2023-05-19T10:11:38.089Z,19.81
2023-05-19T10:14:27.216Z,19.59
2023-05-19T10:17:14.241Z,19.81
2023-05-19T10:20:00.595Z,19.30
2023-05-19T10:22:46.612Z,19.58
2023-05-19T10:25:35.686Z,19.67
2023-05-19T10:28:24.302Z,20.07
2023-05-19T10:31:21.379Z,20.02
2023-05-19T10:34:19.468Z,19.40
2023-05-19T10:37:17.049Z,19.48
2023-05-19T10:40:12.262Z,18.65
2023-05-19T10:43:18.548Z,18.56
2023-05-19T10:46:06.900Z,19.38
2023-05-19T10:48:52.004Z,19.63
2023-05-19T10:51:37.212Z,20.32
2023-05-19T10:54:42.354Z,20.81
2023-05-19T10:57:28.322Z,19.89
2023-05-19T11:00:34.336Z,20.14
2023-05-19T11:03:19.434Z,19.86
2023-05-19T11:06:17.925Z,20.62
2023-05-19T11:09:22.538Z,20.40
2023-05-19T11:12:24.682Z,20.52
2023-05-19T11:15:16.688Z,20.80
2023-05-19T11:18:02.600Z,21.37
2023-05-19T11:20:56.142Z,21.09
2023-05-19T11:23:41.260Z,20.12
2023-05-19T11:26:40.389Z,19.20
2023-05-19T11:29:25.776Z,19.58
2023-05-19T11:32:12.746Z,19.02
2023-05-19T11:34:58.264Z,19.04
2023-05-19T11:37:43.978Z,19.51
2023-05-19T11:40:30.410Z,19.77
2023-05-19T11:43:15.904Z,20.45
2023-05-19T11:46:01.103Z,20.58
2023-05-19T11:48:47.426Z,19.45
2023-05-19T11:51:32.979Z,19.44
2023-05-19T11:54:18.536Z,20.28
2023-05-19T11:57:04.214Z,20.98
2023-05-19T11:59:49.255Z,21.53
2023-05-19T12:02:36.040Z,21.73
2023-05-19T12:05:22.838Z,21.64
2023-05-19T12:08:08.043Z,21.40
2023-05-19T12:10:53.588Z,22.09
2023-05-19T12:13:38.842Z,21.92
2023-05-19T12:16:33.347Z,21.19
2023-05-19T12:19:18.645Z,21.59
2023-05-19T12:22:04.178Z,21.74
2023-05-19T12:24:50.396Z,21.87
2023-05-19T12:27:36.382Z,21.60
2023-05-19T12:30:27.448Z,21.68
2023-05-19T12:33:15.020Z,21.93
2023-05-19T12:36:00.720Z,21.82
2023-05-19T12:38:45.755Z,22.07
2023-05-19T12:41:31.206Z,21.75
2023-05-19T12:44:16.899Z,21.76
2023-05-19T12:47:04.811Z,21.20
2023-05-19T12:49:59.160Z,21.30
2023-05-19T12:52:47.096Z,21.32
2023-05-19T12:55:40.634Z,21.75
2023-05-19T12:58:25.723Z,22.29
2023-05-19T13:01:19.359Z,22.04
2023-05-19T13:04:06.213Z,22.62
2023-05-19T13:06:52.794Z,21.44
2023-05-19T13:09:41.035Z,21.38
2023-05-19T13:12:26.390Z,20.80
2023-05-19T13:15:11.707Z,20.84
2023-05-19T13:17:56.853Z,21.60
2023-05-19T13:20:44.833Z,21.16
2023-05-19T13:23:31.345Z,21.17
2023-05-19T13:26:18.640Z,21.76
2023-05-19T13:29:04.124Z,21.27
2023-05-19T13:31:49.587Z,21.01
2023-05-19T13:34:34.820Z,20.99
2023-05-19T13:37:21.327Z,21.33
2023-05-19T13:40:07.222Z,21.11
2023-05-19T13:42:52.430Z,20.65
2023-05-19T13:45:37.828Z,20.74
2023-05-19T13:48:23.368Z,20.53
2023-05-19T13:51:11.518Z,20.67
2023-05-19T13:54:01.758Z,20.84
2023-05-19T13:56:46.867Z,20.30
2023-05-19T13:59:32.203Z,19.89
2023-05-19T14:02:16.984Z,19.91
2023-05-19T14:05:02.487Z,20.17
2023-05-19T14:07:48.029Z,20.04
2023-05-19T14:10:33.430Z,19.94
2023-05-19T14:13:32.602Z,19.73
2023-05-19T14:16:20.249Z,19.87
2023-05-19T14:19:05.484Z,19.82
2023-05-19T14:21:50.722Z,20.12
2023-05-19T14:24:35.921Z,20.19
2023-05-19T14:27:22.411Z,20.13
2023-05-19T14:30:08.301Z,20.21
2023-05-19T14:32:54.973Z,19.86
2023-05-19T14:35:40.614Z,19.67
2023-05-19T14:38:27.597Z,19.50
2023-05-19T14:41:13.707Z,19.26
2023-05-19T14:43:58.909Z,19.34
2023-05-19T14:46:44.403Z,19.25
2023-05-19T14:49:30.400Z,19.14
2023-05-19T14:52:15.436Z,19.30
2023-05-19T14:55:00.779Z,19.50
2023-05-19T14:57:45.997Z,19.68
2023-05-19T15:00:31.217Z,19.88
2023-05-19T15:03:16.715Z,19.54
2023-05-19T15:06:02.174Z,19.96
2023-05-19T15:08:47.535Z,19.63
2023-05-19T15:11:32.836Z,19.70
2023-05-19T15:14:17.970Z,19.35
2023-05-19T15:17:03.752Z,19.21
2023-05-19T15:19:49.100Z,19.33
2023-05-19T15:22:34.580Z,19.38
2023-05-19T15:25:21.445Z,19.34
2023-05-19T15:28:06.686Z,19.36
2023-05-19T15:30:54.278Z,19.14
2023-05-19T15:33:39.838Z,19.34
2023-05-19T15:36:25.238Z,19.48
2023-05-19T15:39:10.646Z,19.52
2023-05-19T15:41:56.077Z,19.65
2023-05-19T15:44:41.437Z,19.87
2023-05-19T15:47:26.867Z,19.78
2023-05-19T15:50:12.363Z,19.70
2023-05-19T15:52:57.623Z,19.67
2023-05-19T15:55:43.046Z,19.36
2023-05-19T15:58:28.438Z,19.35
2023-05-19T16:01:15.280Z,19.29
2023-05-19T16:04:00.542Z,19.17
2023-05-19T16:06:45.854Z,19.29
2023-05-19T16:09:31.305Z,19.32
2023-05-19T16:12:16.776Z,19.26
2023-05-19T16:15:02.269Z,19.35
2023-05-19T16:17:47.750Z,19.54
2023-05-19T16:20:33.304Z,19.51
2023-05-19T16:23:19.123Z,19.35
2023-05-19T16:26:04.691Z,19.16
2023-05-19T16:28:49.801Z,18.92
2023-05-19T16:31:35.213Z,18.68
2023-05-19T16:34:20.560Z,18.66
2023-05-19T16:37:08.014Z,18.59
2023-05-19T16:39:54.718Z,18.91
2023-05-19T16:42:39.820Z,18.81
2023-05-19T16:45:25.407Z,18.96
2023-05-19T16:48:10.718Z,19.04
2023-05-19T16:50:56.547Z,19.10
2023-05-19T16:53:42.085Z,19.06
2023-05-19T16:56:27.422Z,18.99
2023-05-19T16:59:13.064Z,19.14
2023-05-19T17:02:03.703Z,19.26
2023-05-19T17:04:48.647Z,19.24
2023-05-19T17:07:34.170Z,19.28
2023-05-19T17:10:19.518Z,19.06
2023-05-19T17:13:06.081Z,18.82
2023-05-19T17:15:52.248Z,18.88
2023-05-19T17:18:37.488Z,18.70
2023-05-19T17:21:22.937Z,18.86
2023-05-19T17:24:10.057Z,18.90
2023-05-19T17:26:55.455Z,19.06
2023-05-19T17:29:41.124Z,19.08
2023-05-19T17:32:26.731Z,19.03
2023-05-19T17:35:11.955Z,18.77
2023-05-19T17:37:57.245Z,18.68
2023-05-19T17:40:42.551Z,18.57
2023-05-19T17:43:28.668Z,18.54
2023-05-19T17:46:14.125Z,18.45
2023-05-19T17:49:05.292Z,18.32
2023-05-19T17:51:52.580Z,18.18
2023-05-19T17:54:41.758Z,18.13
2023-05-19T17:57:30.626Z,18.28
2023-05-19T18:00:16.104Z,18.21
2023-05-19T18:03:01.511Z,18.23
2023-05-19T18:05:47.205Z,18.24
2023-05-19T18:08:33.539Z,18.25
2023-05-19T18:11:19.015Z,18.15
2023-05-19T18:14:04.034Z,18.05
2023-05-19T18:16:49.612Z,17.99
2023-05-19T18:19:34.815Z,17.88
2023-05-19T18:22:21.247Z,17.82
2023-05-19T18:25:06.777Z,17.77
2023-05-19T18:27:53.400Z,17.75
2023-05-19T18:30:38.389Z,17.70
2023-05-19T18:33:25.865Z,17.55
2023-05-19T18:36:12.395Z,17.60
2023-05-19T18:38:58.905Z,17.50
2023-05-19T18:41:44.160Z,17.53
2023-05-19T18:44:29.592Z,17.62
2023-05-19T18:47:17.980Z,17.61
2023-05-19T18:50:03.547Z,17.72
2023-05-19T18:52:48.745Z,17.77
2023-05-19T18:55:35.431Z,17.77
2023-05-19T18:58:21.626Z,17.74
2023-05-19T19:01:07.129Z,17.61
2023-05-19T19:03:52.364Z,17.70
2023-05-19T19:06:37.824Z,17.60
2023-05-19T19:09:22.738Z,17.61
2023-05-19T19:12:08.274Z,17.54
2023-05-19T19:14:53.786Z,17.56
2023-05-19T19:17:38.949Z,17.44
2023-05-19T19:20:24.379Z,17.41
2023-05-19T19:23:09.649Z,17.45
2023-05-19T19:25:54.938Z,17.40
2023-05-19T19:28:40.272Z,17.41
2023-05-19T19:31:25.716Z,17.45
2023-05-19T19:34:11.130Z,17.28
2023-05-19T19:36:57.152Z,17.24
2023-05-19T19:39:42.728Z,17.19
2023-05-19T19:42:29.419Z,17.22
2023-05-19T19:45:15.650Z,17.10
2023-05-19T19:48:01.222Z,16.96
2023-05-19T19:50:46.511Z,16.98
2023-05-19T19:53:31.768Z,17.04
2023-05-19T19:56:17.224Z,17.02
2023-05-19T19:59:02.603Z,16.90
2023-05-19T20:01:48.052Z,16.73
2023-05-19T20:04:33.488Z,16.63
2023-05-19T20:07:18.853Z,16.61
2023-05-19T20:10:04.692Z,16.61
2023-05-19T20:12:49.793Z,16.64
2023-05-19T20:15:35.242Z,16.45
2023-05-19T20:18:20.648Z,16.39
2023-05-19T20:21:06.015Z,16.32
2023-05-19T20:23:51.451Z,16.32
2023-05-19T20:26:36.752Z,16.13
2023-05-19T20:29:22.153Z,16.07
2023-05-19T20:32:07.411Z,16.02
2023-05-19T20:34:52.678Z,15.93
2023-05-19T20:37:37.671Z,15.89
2023-05-19T20:40:22.966Z,15.75
2023-05-19T20:43:08.468Z,15.72
2023-05-19T20:45:53.894Z,15.71
2023-05-19T20:48:39.170Z,15.56
2023-05-19T20:51:24.577Z,15.58
2023-05-19T20:54:10.001Z,15.47
2023-05-19T20:56:55.625Z,15.41
2023-05-19T20:59:40.790Z,15.43
2023-05-19T21:02:25.936Z,15.34
2023-05-19T21:05:11.505Z,15.32
2023-05-19T21:07:56.689Z,15.36
2023-05-19T21:10:41.701Z,15.33
2023-05-19T21:13:27.077Z,15.23
2023-05-19T21:16:12.501Z,15.19
2023-05-19T21:18:57.929Z,15.12
2023-05-19T21:21:43.217Z,15.17
2023-05-19T21:24:28.440Z,15.10
2023-05-19T21:27:13.755Z,15.07
2023-05-19T21:29:59.016Z,14.86
2023-05-19T21:32:44.468Z,14.84
2023-05-19T21:35:29.933Z,14.86
2023-05-19T21:38:23.576Z,14.77
2023-05-19T21:41:09.191Z,14.77
2023-05-19T21:43:54.597Z,14.70
2023-05-19T21:46:40.138Z,14.75
2023-05-19T21:49:25.290Z,14.59
2023-05-19T21:52:10.625Z,14.58
2023-05-19T21:54:56.173Z,14.50
2023-05-19T21:57:41.322Z,14.40
2023-05-19T22:00:26.623Z,14.47
2023-05-19T22:03:12.120Z,14.41
2023-05-19T22:05:57.556Z,14.31
2023-05-19T22:08:42.866Z,14.33
2023-05-19T22:11:28.398Z,14.38
2023-05-19T22:14:13.661Z,14.27
2023-05-19T22:16:59.110Z,14.29
2023-05-19T22:19:45.372Z,14.14
2023-05-19T22:22:30.546Z,14.15
2023-05-19T22:25:16.244Z,14.11
2023-05-19T22:28:01.526Z,14.07
2023-05-19T22:30:46.578Z,14.02
2023-05-19T22:33:32.053Z,14.02
2023-05-19T22:36:17.376Z,14.01
2023-05-19T22:39:02.824Z,14.01
2023-05-19T22:41:47.970Z,13.90
2023-05-19T22:44:33.093Z,13.86
2023-05-19T22:47:18.135Z,13.86
2023-05-19T22:50:03.946Z,13.85
2023-05-19T22:52:49.238Z,13.80
2023-05-19T22:55:34.770Z,13.76
2023-05-19T22:58:20.359Z,13.73
2023-05-19T23:01:05.728Z,13.73
2023-05-19T23:03:50.829Z,13.65
2023-05-19T23:06:35.963Z,13.63
2023-05-19T23:09:21.880Z,13.57
2023-05-19T23:12:07.279Z,13.55
2023-05-19T23:14:52.823Z,13.54
2023-05-19T23:17:37.980Z,13.56
2023-05-19T23:20:23.315Z,13.56
2023-05-19T23:23:08.761Z,13.49
2023-05-19T23:25:54.108Z,13.45
2023-05-19T23:28:41.401Z,13.43
2023-05-19T23:31:26.386Z,13.52
2023-05-19T23:34:11.765Z,13.44
2023-05-19T23:36:57.187Z,13.46
2023-05-19T23:39:42.688Z,13.43
2023-05-19T23:42:27.772Z,13.52
2023-05-19T23:45:13.077Z,13.53
2023-05-19T23:47:58.925Z,13.56
2023-05-19T23:50:44.754Z,13.56
2023-05-19T23:53:30.238Z,13.45
2023-05-19T23:56:15.734Z,13.55
2023-05-19T23:59:01.118Z,13.59
